< < Back
Terminal Aerodrome Forecast


Current Version              Previous Versions:   1  2  3  4  5  6  7  8  9  

Terminal Aerodrome Forecast

352
FTUS44 KMOB 172300
TAFPNS
TAF
KPNS 172324Z 1800/1824 36004KT P6SM SCT250
     FM181500 05005KT P6SM SCT100 BKN250=



Latest METAR

661
SAUS70 KWBC 180658
MTRPNS
METAR KPNS 180653Z AUTO 36004KT 10SM CLR 08/04 A3018 RMK AO2 SLP224
T00780044


USA.gov is the U.S. government's official web portal to all federal, state and local government web resources and services.